Lac La Biche, Canada
Current Conditions -  °F | °C
As of 11:00 PM on Friday 24 Oct 2014 (Local Time) from CYOD Reporting Station
Few Clouds Few Clouds  
Wind Chill: 34°   Ceiling: Unl
Heat Index: 39°   Visibility: 15mi
Dew Point: 27°   Wind: 7mph
Humidity: 61%   Direction: 250°WSW
Pressure: 29.89"   Gusts: NA
Location:  54.77°N, 111.98°W
Report Text: CYOD 250500Z 25006KT 15SM FEW080 04/M03 A2989 RMK AC1 SLP143
Loading
Personal Weather Stations






























Interactive Weather Map
Tropical Storm Tracking
New forecast layout! Learn more

10-Day Weather Forecast

Advertisements
Track Severe Weather on mobile